LFRD/DNR METAR and TAF weather

Enter ICAO airport designator
Station Type Date Time Source
LFRD METAR 2021/01/22 07:00 UTC NOAA

LFRD 220700Z AUTO 24005KT CAVOK 04/03 Q0994 NOSIG


Station Type Date Time Source
LFRD Decoded METAR 2021/01/22 07:00 UTC NOAA

Dinard, France (LFRD) 48-35N 002-04W 60M
Jan 22, 2021 - 02:00 AM EST / 2021.01.22 0700 UTC
Wind: from the WSW (240 degrees) at 6 MPH (5 KT):0
Visibility: greater than 7 mile(s):0
Temperature: 39 F (4 C)
Dew Point: 37 F (3 C)
Relative Humidity: 93%
Pressure (altimeter): 29.35 in. Hg (0994 hPa)
ob: LFRD 220700Z AUTO 24005KT CAVOK 04/03 Q0994 NOSIG
cycle: 7

Station Type Date Time Source
LFRD TAF 2021/01/22 06:21 UTC NOAA

TAF LFRD 220500Z 2206/2306 25007KT 9999 SCT040
TEMPO 2212/2215 SHRA BKN025TCU
TEMPO 2215/2222 4000 SHRA BKN025CB
BECMG 2222/2224 19010KT
TEMPO 2303/2306 3000 SHRA BKN020CB PROB40
TEMPO 2303/2305 2000 TSRA BKN008 BKN020CB

Example: see airport list